Time;durP1;ratioP1;P1;durP2;ratioP2;P2;SDS_P1;SDS_P2;PMS_P1;PMS_P2;Temp;Humidity;BMP_temperature;BMP_pressure;BME280_temperature;BME280_humidity;BME280_pressure;Samples;Min_cycle;Max_cycle;Signal;HPM_P1;HPM_P2
2023/01/30 00:01:15;;;;;;;14.53;9.87;;;-0.30;99.90;;;;;;5115748;28;20649;-62
2023/01/30 00:03:42;;;;;;;14.83;10.67;;;-0.20;99.90;;;;;;5116789;28;20203;-61
2023/01/30 00:06:09;;;;;;;15.43;10.57;;;-0.20;99.90;;;;;;5119199;28;20200;-60
2023/01/30 00:08:36;;;;;;;13.60;9.87;;;-0.20;99.90;;;;;;5118080;28;20224;-61
2023/01/30 00:11:06;;;;;;;14.77;10.53;;;-0.10;99.90;;;;;;5119225;28;20679;-61
2023/01/30 00:13:33;;;;;;;15.27;10.17;;;-0.10;99.90;;;;;;5118407;28;20203;-61
2023/01/30 00:16:00;;;;;;;14.67;9.60;;;-0.10;99.90;;;;;;5118067;28;20223;-61
2023/01/30 00:18:27;;;;;;;14.43;10.77;;;-0.10;99.90;;;;;;5117408;28;20590;-61
2023/01/30 00:20:57;;;;;;;15.97;11.37;;;0.00;99.90;;;;;;5118116;28;20729;-60
2023/01/30 00:23:25;;;;;;;15.67;10.80;;;-0.10;99.90;;;;;;5119811;28;20199;-60
2023/01/30 00:25:51;;;;;;;16.57;11.40;;;-0.10;99.90;;;;;;5118366;28;20214;-60
2023/01/30 00:28:20;;;;;;;16.07;10.87;;;-0.10;99.90;;;;;;5117163;28;20238;-62
2023/01/30 00:30:48;;;;;;;17.03;10.73;;;-0.10;99.90;;;;;;5117698;28;20577;-61
2023/01/30 00:33:15;;;;;;;15.63;11.53;;;-0.10;99.90;;;;;;5117319;28;20208;-61
2023/01/30 00:35:44;;;;;;;15.60;10.93;;;-0.10;99.90;;;;;;5117264;28;20200;-60
2023/01/30 00:38:10;;;;;;;16.30;11.10;;;-0.20;99.90;;;;;;5117183;28;20280;-60
2023/01/30 00:40:37;;;;;;;14.43;10.30;;;-0.20;99.90;;;;;;5117774;28;20199;-60
2023/01/30 00:48:35;;;;;;;18.87;11.40;;;-0.10;99.90;;;;;;5116828;28;20745;-61
2023/01/30 00:51:02;;;;;;;14.93;10.30;;;-0.10;99.90;;;;;;5117686;28;20207;-61
2023/01/30 00:53:29;;;;;;;13.97;10.43;;;-0.10;99.90;;;;;;5118875;28;20207;-61
2023/01/30 00:55:56;;;;;;;15.37;10.70;;;-0.10;99.90;;;;;;5116908;28;20578;-61
2023/01/30 00:58:23;;;;;;;12.67;9.60;;;-0.10;99.90;;;;;;5117300;28;20591;-60
2023/01/30 01:00:52;;;;;;;14.23;10.70;;;0.00;99.90;;;;;;5117538;28;20207;-60
2023/01/30 01:03:19;;;;;;;15.10;10.50;;;-0.10;99.90;;;;;;5117472;28;20208;-61
2023/01/30 01:05:46;;;;;;;13.87;9.80;;;-0.40;99.90;;;;;;5117198;28;20222;-61
2023/01/30 01:08:13;;;;;;;16.57;10.57;;;-0.70;99.90;;;;;;5116940;28;20223;-61
2023/01/30 01:10:40;;;;;;;15.03;10.80;;;-0.90;99.90;;;;;;5117147;28;20207;-60
2023/01/30 01:13:07;;;;;;;15.77;10.47;;;-0.90;99.90;;;;;;5117368;28;20204;-60
2023/01/30 01:15:34;;;;;;;15.40;10.80;;;-0.80;99.90;;;;;;5116786;27;20199;-61
2023/01/30 01:18:02;;;;;;;16.10;11.27;;;-0.70;99.90;;;;;;5117371;28;20227;-60
2023/01/30 01:20:29;;;;;;;14.20;10.57;;;-0.50;99.90;;;;;;5117136;28;20215;-60
2023/01/30 01:22:56;;;;;;;17.37;10.53;;;-0.40;99.90;;;;;;5118512;28;20659;-60
2023/01/30 01:25:24;;;;;;;17.20;10.93;;;-0.50;99.90;;;;;;5117792;28;20207;-60
2023/01/30 01:27:51;;;;;;;14.97;10.47;;;-0.60;99.90;;;;;;5116851;28;20227;-61
2023/01/30 01:30:18;;;;;;;17.33;11.20;;;-0.60;99.90;;;;;;5117647;28;20216;-61
2023/01/30 01:32:45;;;;;;;16.33;10.33;;;-0.50;99.90;;;;;;5117037;28;20207;-61
2023/01/30 01:35:14;;;;;;;17.03;11.20;;;-0.30;99.90;;;;;;5117391;28;20229;-61
2023/01/30 01:37:40;;;;;;;16.57;10.57;;;-0.10;99.90;;;;;;5116813;28;20255;-60
2023/01/30 01:42:54;;;;;;;15.17;11.40;;;0.40;99.90;;;;;;5116915;28;20814;-61
2023/01/30 01:45:23;;;;;;;15.50;9.50;;;0.60;99.90;;;;;;5116735;28;20208;-60
2023/01/30 01:47:58;;;;;;;14.33;9.93;;;0.80;99.90;;;;;;5117061;28;20306;-60
2023/01/30 01:50:31;;;;;;;18.57;11.20;;;1.00;99.90;;;;;;5116859;28;20203;-60
2023/01/30 01:53:00;;;;;;;15.43;10.27;;;1.10;99.90;;;;;;5118010;28;20199;-60
2023/01/30 01:55:28;;;;;;;16.80;10.90;;;1.40;99.90;;;;;;5116861;28;20211;-61
2023/01/30 01:58:00;;;;;;;13.93;10.37;;;1.50;99.90;;;;;;5116685;28;20231;-61
2023/01/30 02:00:27;;;;;;;15.37;10.53;;;1.60;99.90;;;;;;5116566;28;20676;-61
2023/01/30 02:02:57;;;;;;;15.73;10.97;;;1.70;99.90;;;;;;5116381;28;20226;-61
2023/01/30 02:05:28;;;;;;;13.00;10.07;;;1.80;99.90;;;;;;5116320;28;20621;-60
2023/01/30 02:08:03;;;;;;;15.67;10.33;;;1.90;99.90;;;;;;5116381;28;20219;-60
2023/01/30 02:10:37;;;;;;;12.77;9.63;;;1.90;99.90;;;;;;5116187;28;20206;-60
2023/01/30 02:13:03;;;;;;;17.47;9.97;;;1.90;99.90;;;;;;5116148;28;20666;-60
2023/01/30 02:15:30;;;;;;;13.87;9.90;;;2.00;99.90;;;;;;5116466;28;20676;-60
2023/01/30 02:17:57;;;;;;;13.17;10.03;;;2.10;99.90;;;;;;5116615;28;20242;-60
2023/01/30 02:20:36;;;;;;;10.53;8.47;;;2.10;99.90;;;;;;5114885;28;20200;-61
2023/01/30 02:23:38;;;;;;;12.20;9.40;;;2.10;99.90;;;;;;5116297;28;20214;-60
2023/01/30 02:26:39;;;;;;;14.13;9.83;;;2.00;99.90;;;;;;5116143;28;20199;-60
2023/01/30 02:29:44;;;;;;;13.23;9.70;;;1.70;99.90;;;;;;5117026;28;20288;-60
2023/01/30 02:32:18;;;;;;;12.47;8.97;;;1.60;99.90;;;;;;5116499;28;20587;-60
2023/01/30 02:34:51;;;;;;;15.57;10.60;;;1.50;99.90;;;;;;5116782;28;20254;-61
2023/01/30 02:37:33;;;;;;;14.07;10.03;;;1.40;99.90;;;;;;5115862;28;20726;-60
2023/01/30 02:40:15;;;;;;;13.40;10.07;;;1.40;99.90;;;;;;5117126;28;20211;-60
2023/01/30 02:42:51;;;;;;;16.53;11.70;;;1.30;99.90;;;;;;5116446;28;20199;-60
2023/01/30 02:45:26;;;;;;;13.67;10.63;;;1.30;99.90;;;;;;5116981;28;20553;-60
2023/01/30 02:47:57;;;;;;;16.67;10.83;;;1.30;99.90;;;;;;5117252;28;20227;-60
2023/01/30 02:50:27;;;;;;;18.13;11.70;;;1.30;99.90;;;;;;5117221;28;20204;-60
2023/01/30 02:52:55;;;;;;;16.97;11.87;;;1.30;99.90;;;;;;5117431;28;20211;-60
2023/01/30 02:55:24;;;;;;;15.80;11.93;;;1.40;99.90;;;;;;5117676;28;20204;-60
2023/01/30 02:57:51;;;;;;;15.27;11.00;;;1.40;99.90;;;;;;5116880;28;20223;-61
2023/01/30 03:00:22;;;;;;;15.87;11.50;;;1.60;99.90;;;;;;5117793;28;20204;-60
2023/01/30 03:03:17;;;;;;;15.10;11.63;;;1.70;99.90;;;;;;5117398;28;20208;-60
2023/01/30 03:06:20;;;;;;;13.37;10.53;;;1.80;99.90;;;;;;5117457;28;20210;-60
2023/01/30 03:08:57;;;;;;;15.03;11.13;;;1.90;99.90;;;;;;5118132;28;20219;-60
2023/01/30 03:11:30;;;;;;;17.17;10.97;;;2.00;99.90;;;;;;5116275;28;20207;-61
2023/01/30 03:14:06;;;;;;;14.20;10.33;;;2.00;99.90;;;;;;5116156;28;20222;-61
2023/01/30 03:16:37;;;;;;;15.97;10.13;;;2.10;99.90;;;;;;5115636;28;20238;-61
2023/01/30 03:19:10;;;;;;;14.50;10.37;;;2.00;99.90;;;;;;5115759;28;20230;-60
2023/01/30 03:21:41;;;;;;;13.83;9.73;;;2.10;99.90;;;;;;5115893;28;20210;-60
2023/01/30 03:24:08;;;;;;;13.07;9.80;;;2.00;99.90;;;;;;5116221;28;20231;-60
2023/01/30 03:26:40;;;;;;;12.47;9.63;;;1.80;99.90;;;;;;5115428;28;20208;-60
2023/01/30 03:29:07;;;;;;;14.43;10.00;;;1.70;99.90;;;;;;5115011;28;20613;-60
2023/01/30 03:31:33;;;;;;;13.83;9.80;;;1.60;99.90;;;;;;5115194;28;20207;-60
2023/01/30 03:34:00;;;;;;;14.20;10.00;;;1.60;99.90;;;;;;5114282;28;20211;-61
2023/01/30 03:36:28;;;;;;;12.07;9.40;;;1.50;99.90;;;;;;5114099;28;20203;-60
2023/01/30 03:38:55;;;;;;;12.63;9.30;;;1.50;99.90;;;;;;5117739;28;20238;-60
2023/01/30 03:41:22;;;;;;;14.33;9.77;;;1.50;99.90;;;;;;5119193;28;20207;-60
2023/01/30 03:43:48;;;;;;;11.53;8.67;;;1.60;99.90;;;;;;5118699;28;20203;-60
2023/01/30 03:46:15;;;;;;;12.53;8.93;;;1.70;99.90;;;;;;5118299;28;20688;-61
2023/01/30 03:48:42;;;;;;;11.67;8.33;;;1.80;99.90;;;;;;5118421;28;20223;-60
2023/01/30 03:51:08;;;;;;;11.90;9.17;;;1.90;99.90;;;;;;5118440;28;20651;-60
2023/01/30 03:53:36;;;;;;;13.23;9.03;;;2.10;99.90;;;;;;5119550;28;20210;-60
2023/01/30 03:56:03;;;;;;;13.53;9.10;;;2.20;99.90;;;;;;5118154;28;20710;-60
2023/01/30 03:58:30;;;;;;;11.93;9.27;;;2.40;99.90;;;;;;5118879;28;20227;-61
2023/01/30 04:00:57;;;;;;;12.37;8.50;;;2.40;99.90;;;;;;5119274;28;20270;-61
2023/01/30 04:03:24;;;;;;;16.27;11.70;;;2.50;99.90;;;;;;5119973;28;20683;-61
2023/01/30 04:05:50;;;;;;;11.03;8.37;;;2.60;99.90;;;;;;5119808;28;20205;-60
2023/01/30 04:08:17;;;;;;;11.57;8.43;;;2.60;99.90;;;;;;5119500;28;20224;-60
2023/01/30 04:10:45;;;;;;;12.53;8.03;;;2.60;99.90;;;;;;5119053;28;20671;-61
2023/01/30 04:13:12;;;;;;;10.97;8.23;;;2.60;99.90;;;;;;5118717;28;20207;-60
2023/01/30 04:15:38;;;;;;;11.00;8.30;;;2.60;99.90;;;;;;5119500;28;20214;-60
2023/01/30 04:18:05;;;;;;;12.17;8.10;;;2.70;99.90;;;;;;5118542;28;20239;-60
2023/01/30 04:20:32;;;;;;;11.17;7.47;;;2.80;99.90;;;;;;5119582;28;20226;-60
2023/01/30 04:22:59;;;;;;;14.60;8.57;;;2.90;99.90;;;;;;5120023;28;20559;-60
2023/01/30 04:25:25;;;;;;;10.03;7.43;;;3.00;99.90;;;;;;5119501;28;20206;-60
2023/01/30 04:27:53;;;;;;;10.80;8.13;;;3.20;99.90;;;;;;5119045;28;20232;-60
2023/01/30 04:30:20;;;;;;;10.70;8.20;;;3.30;99.90;;;;;;5118539;28;20230;-60
2023/01/30 04:32:47;;;;;;;10.33;7.73;;;3.30;99.90;;;;;;5118659;28;20578;-60
2023/01/30 04:35:14;;;;;;;10.13;6.80;;;3.30;99.90;;;;;;5118903;28;20207;-60
2023/01/30 04:37:41;;;;;;;9.77;7.73;;;3.40;99.90;;;;;;5118169;28;20231;-60
2023/01/30 04:40:08;;;;;;;10.37;7.47;;;3.40;99.90;;;;;;5118346;28;20659;-60
2023/01/30 04:42:35;;;;;;;11.17;7.93;;;3.50;99.90;;;;;;5118440;28;20211;-60
2023/01/30 04:45:04;;;;;;;10.00;7.20;;;3.60;99.90;;;;;;5118111;28;20582;-60
2023/01/30 04:47:31;;;;;;;9.67;6.90;;;3.70;99.90;;;;;;5117306;28;20219;-60
2023/01/30 04:49:57;;;;;;;15.17;7.87;;;3.70;99.90;;;;;;5116324;28;20211;-60
2023/01/30 04:52:24;;;;;;;14.87;9.63;;;3.80;99.90;;;;;;5117610;28;20739;-60
2023/01/30 04:54:51;;;;;;;10.10;7.17;;;3.80;99.90;;;;;;5118101;28;20212;-60
2023/01/30 04:57:18;;;;;;;9.53;7.50;;;3.80;99.90;;;;;;5117023;28;20234;-60
2023/01/30 04:59:44;;;;;;;9.70;6.90;;;3.80;99.90;;;;;;5116973;28;20218;-60
2023/01/30 05:02:12;;;;;;;9.50;7.30;;;3.90;99.90;;;;;;5117544;28;20207;-61
2023/01/30 05:04:39;;;;;;;10.53;6.53;;;3.90;99.90;;;;;;5117381;28;20203;-61
2023/01/30 05:07:06;;;;;;;10.53;7.07;;;4.00;99.90;;;;;;5117492;28;20210;-59
2023/01/30 05:09:32;;;;;;;9.37;6.53;;;4.10;99.90;;;;;;5117341;28;20207;-60
2023/01/30 05:11:59;;;;;;;8.43;6.90;;;4.10;99.90;;;;;;5117015;28;20210;-60
2023/01/30 05:14:26;;;;;;;9.30;7.50;;;4.00;99.90;;;;;;5117060;28;20214;-62
2023/01/30 05:16:53;;;;;;;15.37;9.00;;;4.00;99.90;;;;;;5117501;28;20211;-61
2023/01/30 05:19:21;;;;;;;10.90;7.37;;;4.00;99.90;;;;;;5117244;28;20219;-60
2023/01/30 05:21:47;;;;;;;9.23;7.07;;;4.00;99.90;;;;;;5117076;28;20667;-59
2023/01/30 05:24:14;;;;;;;9.57;7.07;;;4.00;99.90;;;;;;5119288;28;20204;-60
2023/01/30 05:26:41;;;;;;;9.60;6.87;;;4.10;99.90;;;;;;5116710;28;20204;-59
2023/01/30 05:29:09;;;;;;;9.37;6.40;;;4.10;99.90;;;;;;5116969;28;20254;-61
2023/01/30 05:31:37;;;;;;;9.37;6.50;;;4.10;99.90;;;;;;5116952;28;20200;-61
2023/01/30 05:34:04;;;;;;;8.90;6.40;;;4.10;99.90;;;;;;5117409;28;20200;-59
2023/01/30 05:36:32;;;;;;;8.30;6.20;;;4.10;99.90;;;;;;5116978;28;20203;-61
2023/01/30 05:38:58;;;;;;;8.57;6.90;;;4.10;99.90;;;;;;5116528;28;20235;-59
2023/01/30 05:41:25;;;;;;;8.90;6.50;;;4.10;99.90;;;;;;5116592;28;20203;-59
2023/01/30 05:43:52;;;;;;;8.23;6.63;;;4.10;99.90;;;;;;5116518;28;20203;-60
2023/01/30 05:46:19;;;;;;;9.80;6.83;;;4.10;99.90;;;;;;5116448;28;20706;-60
2023/01/30 05:48:46;;;;;;;9.33;6.50;;;4.10;99.90;;;;;;5116585;28;20336;-60
2023/01/30 05:51:17;;;;;;;7.17;6.03;;;4.20;99.90;;;;;;5116794;28;20234;-60
2023/01/30 05:53:46;;;;;;;11.20;8.47;;;4.30;99.90;;;;;;5117112;28;20671;-60
2023/01/30 05:56:13;;;;;;;8.43;6.30;;;4.30;99.90;;;;;;5116518;28;20203;-60
2023/01/30 05:58:40;;;;;;;8.90;6.73;;;4.40;99.90;;;;;;5116631;28;20227;-60
2023/01/30 06:01:10;;;;;;;12.43;8.20;;;4.40;99.90;;;;;;5115053;28;20203;-60
2023/01/30 06:03:37;;;;;;;11.13;7.03;;;4.50;99.90;;;;;;5117324;28;20210;-60
2023/01/30 06:06:05;;;;;;;10.83;8.00;;;4.50;99.90;;;;;;5116389;28;20207;-61
2023/01/30 06:08:32;;;;;;;11.30;8.33;;;4.20;99.90;;;;;;5116799;28;20226;-59
2023/01/30 06:11:01;;;;;;;8.50;6.67;;;4.30;99.90;;;;;;5116218;28;20211;-61
2023/01/30 06:13:28;;;;;;;9.23;6.97;;;4.20;99.90;;;;;;5116177;28;20200;-60
2023/01/30 06:15:55;;;;;;;8.90;6.97;;;4.10;99.90;;;;;;5115052;28;20211;-60
2023/01/30 06:18:22;;;;;;;7.77;6.00;;;4.10;99.90;;;;;;5116004;28;20227;-60
2023/01/30 06:20:49;;;;;;;8.37;6.37;;;4.00;99.90;;;;;;5115824;28;20208;-59
2023/01/30 06:23:16;;;;;;;12.87;8.60;;;4.00;99.90;;;;;;5117978;28;20203;-59
2023/01/30 06:25:44;;;;;;;8.10;6.10;;;4.10;99.90;;;;;;5116835;28;20227;-61
2023/01/30 06:28:12;;;;;;;8.73;6.20;;;4.10;99.90;;;;;;5115553;28;20281;-60
2023/01/30 06:30:39;;;;;;;8.03;6.03;;;4.10;99.90;;;;;;5115106;28;20275;-60
2023/01/30 06:33:06;;;;;;;8.23;6.23;;;4.00;99.90;;;;;;5116267;28;20199;-60
2023/01/30 06:35:33;;;;;;;8.93;5.80;;;4.00;99.90;;;;;;5115550;28;20208;-59
2023/01/30 06:38:00;;;;;;;8.00;6.17;;;4.00;99.90;;;;;;5116149;28;20372;-59
2023/01/30 06:40:27;;;;;;;7.57;5.93;;;3.90;99.90;;;;;;5115710;28;20214;-59
2023/01/30 06:42:53;;;;;;;9.00;5.93;;;4.00;99.90;;;;;;5115930;28;20218;-59
2023/01/30 06:45:22;;;;;;;8.97;5.60;;;4.00;99.90;;;;;;5115699;28;20203;-62
2023/01/30 06:47:50;;;;;;;8.20;6.43;;;4.00;99.90;;;;;;5115497;28;20250;-59
2023/01/30 06:50:18;;;;;;;7.30;5.93;;;4.10;99.90;;;;;;5114654;28;20271;-59
2023/01/30 06:52:47;;;;;;;10.53;6.93;;;4.20;99.90;;;;;;5117942;28;20219;-60
2023/01/30 06:55:16;;;;;;;7.70;5.80;;;4.30;99.90;;;;;;5116442;28;20222;-60
2023/01/30 06:57:43;;;;;;;8.37;6.67;;;4.30;99.90;;;;;;5115212;28;20250;-60
2023/01/30 07:00:13;;;;;;;8.60;5.67;;;4.40;99.90;;;;;;5115061;28;20264;-60
2023/01/30 07:02:41;;;;;;;6.63;5.57;;;4.40;99.90;;;;;;5115055;28;20225;-59
2023/01/30 07:05:09;;;;;;;7.57;5.53;;;4.30;99.90;;;;;;5115679;28;20211;-60
2023/01/30 07:07:37;;;;;;;8.03;6.17;;;4.40;99.90;;;;;;5114892;28;20318;-60
2023/01/30 07:10:05;;;;;;;8.43;6.47;;;4.40;99.90;;;;;;5114888;28;20206;-60
2023/01/30 07:12:32;;;;;;;6.73;5.47;;;4.40;99.90;;;;;;5115368;28;20260;-60
2023/01/30 07:14:59;;;;;;;8.57;6.07;;;4.60;99.90;;;;;;5114839;28;20222;-60
2023/01/30 07:17:26;;;;;;;8.17;6.07;;;4.50;99.90;;;;;;5114761;28;20231;-60
2023/01/30 07:19:54;;;;;;;9.40;5.80;;;4.50;99.90;;;;;;5114548;28;20621;-60
2023/01/30 07:22:21;;;;;;;9.20;6.07;;;4.50;99.90;;;;;;5115120;28;20207;-62
2023/01/30 07:24:47;;;;;;;7.10;5.47;;;4.60;99.90;;;;;;5114947;28;20214;-60
2023/01/30 07:27:14;;;;;;;8.17;5.93;;;4.70;99.90;;;;;;5114370;28;20243;-60
2023/01/30 07:29:41;;;;;;;7.53;6.03;;;4.70;99.90;;;;;;5114253;28;20199;-60
2023/01/30 07:32:13;;;;;;;8.30;6.03;;;4.70;99.90;;;;;;5114553;28;20667;-60
2023/01/30 07:34:40;;;;;;;6.73;5.77;;;4.70;99.90;;;;;;5114594;28;20199;-60
2023/01/30 07:37:08;;;;;;;7.80;6.23;;;4.70;99.90;;;;;;5114668;28;20260;-60
2023/01/30 07:39:35;;;;;;;7.20;5.63;;;4.80;99.90;;;;;;5114193;28;20223;-61
2023/01/30 07:42:03;;;;;;;7.17;5.60;;;4.80;99.90;;;;;;5114574;28;20199;-60
2023/01/30 07:44:30;;;;;;;9.43;5.77;;;4.80;99.90;;;;;;5114299;28;20590;-60
2023/01/30 07:46:56;;;;;;;7.70;6.03;;;4.70;99.90;;;;;;5114645;28;20576;-60
2023/01/30 07:49:23;;;;;;;8.03;5.87;;;4.80;99.90;;;;;;5115290;28;20199;-60
2023/01/30 07:51:50;;;;;;;7.73;6.10;;;4.90;99.90;;;;;;5114877;28;20208;-59
2023/01/30 07:54:19;;;;;;;6.27;5.10;;;4.90;99.90;;;;;;5114883;28;20675;-59
2023/01/30 07:56:45;;;;;;;8.43;6.80;;;4.90;99.90;;;;;;5114542;28;20199;-59
2023/01/30 07:59:12;;;;;;;7.73;6.10;;;4.90;99.90;;;;;;5114971;28;20223;-59
2023/01/30 08:01:39;;;;;;;8.37;6.23;;;4.90;99.90;;;;;;5114834;28;20655;-59
2023/01/30 08:04:06;;;;;;;7.83;5.60;;;5.00;99.90;;;;;;5115131;28;20208;-59
2023/01/30 08:06:37;;;;;;;7.83;5.80;;;5.10;99.90;;;;;;5114816;28;20214;-59
2023/01/30 08:09:04;;;;;;;9.30;6.40;;;5.10;99.90;;;;;;5115001;28;20318;-61
2023/01/30 08:11:32;;;;;;;22.63;17.27;;;5.00;99.90;;;;;;5115183;28;20663;-59
2023/01/30 08:13:59;;;;;;;9.83;7.50;;;5.00;99.90;;;;;;5114952;28;20659;-60
2023/01/30 08:16:26;;;;;;;8.47;6.00;;;5.10;99.90;;;;;;5115183;28;20211;-59
2023/01/30 08:18:53;;;;;;;7.50;5.60;;;5.10;99.90;;;;;;5114867;28;20227;-60
2023/01/30 08:21:20;;;;;;;67.20;41.47;;;5.10;99.90;;;;;;5114448;28;20244;-60
2023/01/30 08:23:47;;;;;;;30.73;8.67;;;5.10;99.90;;;;;;5114526;28;20667;-60
2023/01/30 08:26:14;;;;;;;9.30;5.70;;;5.10;99.90;;;;;;5118412;28;20213;-61
2023/01/30 08:28:42;;;;;;;9.03;6.00;;;5.10;99.90;;;;;;5118350;28;20236;-61
2023/01/30 08:31:10;;;;;;;10.20;6.47;;;5.10;99.90;;;;;;5118276;28;20227;-61
2023/01/30 08:33:37;;;;;;;7.53;5.43;;;5.30;99.90;;;;;;5117590;28;20203;-61
2023/01/30 08:36:05;;;;;;;8.93;6.37;;;5.50;99.90;;;;;;5117855;28;20641;-60
2023/01/30 08:38:31;;;;;;;8.60;6.00;;;5.40;99.90;;;;;;5117805;28;20226;-61
2023/01/30 08:40:59;;;;;;;7.97;6.30;;;5.50;99.90;;;;;;5117683;28;20294;-60
2023/01/30 08:43:27;;;;;;;8.10;6.43;;;5.50;99.90;;;;;;5117808;28;20235;-60
2023/01/30 08:45:56;;;;;;;6.97;5.83;;;5.50;99.90;;;;;;5117660;28;20592;-60
2023/01/30 08:48:23;;;;;;;9.03;6.13;;;5.50;99.90;;;;;;5117884;28;20255;-60
2023/01/30 08:50:52;;;;;;;7.30;5.90;;;5.60;99.90;;;;;;5117121;28;20203;-60
2023/01/30 08:53:19;;;;;;;6.40;5.43;;;5.70;99.90;;;;;;5117410;28;20819;-60
2023/01/30 08:55:46;;;;;;;7.17;5.57;;;5.70;99.90;;;;;;5117353;28;20210;-60
2023/01/30 08:58:12;;;;;;;8.30;5.90;;;5.80;99.90;;;;;;5116741;28;20230;-61
2023/01/30 09:00:43;;;;;;;8.83;5.53;;;5.80;99.90;;;;;;5116658;28;20238;-60
2023/01/30 09:03:12;;;;;;;7.23;5.40;;;5.80;99.90;;;;;;5117081;28;20204;-60
2023/01/30 09:05:39;;;;;;;6.63;5.03;;;5.80;99.90;;;;;;5117047;28;20200;-60
2023/01/30 09:08:06;;;;;;;7.33;5.30;;;5.80;99.90;;;;;;5117331;28;20238;-60
2023/01/30 09:10:32;;;;;;;6.43;5.27;;;5.90;99.90;;;;;;5116773;28;20200;-61
2023/01/30 09:12:59;;;;;;;9.97;5.87;;;5.80;99.90;;;;;;5117630;28;20208;-61
2023/01/30 09:15:26;;;;;;;13.47;6.00;;;5.70;99.90;;;;;;5117163;28;20200;-61
2023/01/30 09:17:53;;;;;;;6.60;5.17;;;5.80;99.90;;;;;;5116463;28;20235;-61
2023/01/30 09:20:21;;;;;;;7.17;5.00;;;5.80;99.90;;;;;;5116364;28;20230;-61
2023/01/30 09:22:48;;;;;;;8.97;4.97;;;5.80;99.90;;;;;;5117024;28;20207;-60
2023/01/30 09:25:16;;;;;;;6.53;5.47;;;5.70;99.90;;;;;;5117348;28;20203;-60
2023/01/30 09:27:43;;;;;;;7.70;4.93;;;5.80;99.90;;;;;;5116616;28;20241;-60
2023/01/30 09:30:11;;;;;;;9.03;5.60;;;5.80;99.90;;;;;;5116949;28;20291;-60
2023/01/30 09:32:38;;;;;;;7.87;5.07;;;5.80;99.90;;;;;;5116800;28;20227;-60
2023/01/30 09:35:05;;;;;;;7.87;5.03;;;6.00;99.90;;;;;;5117016;28;20215;-60
2023/01/30 09:37:33;;;;;;;5.83;4.83;;;6.10;99.90;;;;;;5116727;28;20741;-61
2023/01/30 09:40:00;;;;;;;6.47;4.60;;;6.20;99.90;;;;;;5117001;28;20283;-61
2023/01/30 09:42:55;;;;;;;6.83;4.27;;;6.10;99.90;;;;;;5116551;28;20220;-61
2023/01/30 09:45:47;;;;;;;6.50;5.10;;;6.20;99.90;;;;;;5116587;28;20200;-61
2023/01/30 09:48:17;;;;;;;16.90;8.20;;;6.20;99.90;;;;;;5116700;28;20228;-60
2023/01/30 09:51:07;;;;;;;11.60;4.90;;;6.20;99.90;;;;;;5116133;28;20200;-60
2023/01/30 09:53:44;;;;;;;6.27;4.33;;;6.10;99.90;;;;;;5116444;28;20214;-60
2023/01/30 09:56:11;;;;;;;5.60;4.23;;;5.90;99.90;;;;;;5116130;28;20585;-60
2023/01/30 09:58:46;;;;;;;7.27;4.50;;;5.90;99.90;;;;;;5116028;28;20231;-59
2023/01/30 10:01:20;;;;;;;7.27;5.07;;;6.00;99.90;;;;;;5115393;28;20211;-64
2023/01/30 10:03:58;;;;;;;6.60;5.00;;;6.00;99.90;;;;;;5112077;28;20207;-58
2023/01/30 10:06:24;;;;;;;5.80;4.10;;;6.00;99.90;;;;;;5112879;28;20195;-61
2023/01/30 10:08:57;;;;;;;6.10;4.50;;;6.10;99.90;;;;;;5112107;28;20575;-59
2023/01/30 10:11:39;;;;;;;6.57;4.40;;;6.10;99.90;;;;;;5114107;28;20214;-61
2023/01/30 10:14:22;;;;;;;6.10;4.20;;;6.20;99.90;;;;;;5113562;28;20204;-61
2023/01/30 10:17:00;;;;;;;5.20;3.90;;;6.30;99.90;;;;;;5114707;28;20211;-61
2023/01/30 10:19:43;;;;;;;5.27;3.80;;;6.30;99.90;;;;;;5113944;28;20227;-62
2023/01/30 10:22:23;;;;;;;8.43;5.60;;;6.30;99.90;;;;;;5113430;28;20203;-59
2023/01/30 10:25:03;;;;;;;6.27;3.87;;;6.40;99.90;;;;;;5114149;28;20210;-60
2023/01/30 10:27:32;;;;;;;4.60;3.63;;;6.40;99.90;;;;;;5114352;28;20238;-61
2023/01/30 10:30:02;;;;;;;7.47;3.60;;;6.40;99.90;;;;;;5112368;28;20682;-58
2023/01/30 10:32:32;;;;;;;9.13;3.53;;;6.40;99.90;;;;;;5112798;28;20211;-60
2023/01/30 10:35:06;;;;;;;5.30;3.60;;;6.30;99.90;;;;;;5112364;28;20204;-58
2023/01/30 10:37:39;;;;;;;5.83;3.33;;;6.30;99.90;;;;;;5112380;28;20227;-58
2023/01/30 10:40:17;;;;;;;18.00;12.87;;;6.30;99.90;;;;;;5112209;28;20255;-58
2023/01/30 10:42:49;;;;;;;5.50;4.13;;;6.30;99.90;;;;;;5112538;28;20246;-61
2023/01/30 10:45:19;;;;;;;7.77;3.50;;;6.50;99.90;;;;;;5112807;28;20211;-61
2023/01/30 10:47:59;;;;;;;5.20;3.33;;;6.50;99.90;;;;;;5112977;28;20616;-61
2023/01/30 10:50:34;;;;;;;4.07;2.97;;;6.60;99.90;;;;;;5113468;28;20204;-61
2023/01/30 10:53:09;;;;;;;4.53;2.80;;;6.60;99.90;;;;;;5113806;28;20556;-60
2023/01/30 10:55:42;;;;;;;5.53;3.17;;;6.60;99.90;;;;;;5112883;28;20199;-62
2023/01/30 10:58:17;;;;;;;5.57;3.00;;;6.70;99.90;;;;;;5112499;28;20223;-60
2023/01/30 11:00:49;;;;;;;4.37;2.60;;;6.80;99.90;;;;;;5112836;28;20226;-61
2023/01/30 11:03:26;;;;;;;3.67;2.37;;;6.90;99.90;;;;;;5114238;28;20203;-60
2023/01/30 11:05:56;;;;;;;4.10;2.50;;;6.90;99.90;;;;;;5113154;28;20252;-60
2023/01/30 11:08:26;;;;;;;5.87;2.17;;;6.80;99.90;;;;;;5113217;28;20318;-58
2023/01/30 11:10:55;;;;;;;3.90;2.17;;;6.90;99.90;;;;;;5112400;28;20204;-58
2023/01/30 11:13:30;;;;;;;2.80;2.20;;;6.90;99.90;;;;;;5113156;28;20211;-58
2023/01/30 11:15:59;;;;;;;2.83;2.30;;;6.80;99.90;;;;;;5109706;28;20679;-61
2023/01/30 11:18:26;;;;;;;3.00;2.20;;;6.80;99.90;;;;;;5094375;28;20227;-62
2023/01/30 11:21:02;;;;;;;3.20;2.33;;;6.70;99.90;;;;;;5093851;28;20234;-58
2023/01/30 11:23:33;;;;;;;3.60;2.20;;;6.70;99.90;;;;;;5094535;28;20212;-58
2023/01/30 11:26:03;;;;;;;3.50;2.20;;;6.80;99.90;;;;;;5093687;28;20299;-58
2023/01/30 11:28:39;;;;;;;3.53;2.50;;;6.90;99.90;;;;;;5093945;28;20224;-58
2023/01/30 11:31:14;;;;;;;4.40;2.50;;;6.80;99.90;;;;;;5093992;28;20225;-58
2023/01/30 11:33:40;;;;;;;3.57;2.47;;;6.80;99.90;;;;;;5094200;28;20212;-58
2023/01/30 11:36:24;;;;;;;2.73;2.23;;;6.70;99.90;;;;;;5094505;28;20257;-58
2023/01/30 11:38:58;;;;;;;3.57;2.93;;;6.70;99.90;;;;;;5093956;28;20235;-57
2023/01/30 11:41:26;;;;;;;3.10;2.47;;;6.80;99.90;;;;;;5093512;28;20224;-58
2023/01/30 11:44:00;;;;;;;7.47;4.20;;;7.00;99.90;;;;;;5094283;28;20595;-58
2023/01/30 11:46:31;;;;;;;2.60;2.30;;;7.10;99.90;;;;;;5093861;28;20204;-58
2023/01/30 11:49:02;;;;;;;2.57;2.07;;;7.00;99.90;;;;;;5093915;28;20228;-57
2023/01/30 11:51:33;;;;;;;4.67;1.90;;;7.20;99.90;;;;;;5093524;28;20262;-58
2023/01/30 11:54:05;;;;;;;7.30;2.07;;;7.20;99.90;;;;;;5093955;28;20208;-58
2023/01/30 11:56:39;;;;;;;4.83;2.40;;;7.30;99.90;;;;;;5093201;28;20257;-58
2023/01/30 11:59:14;;;;;;;2.50;2.00;;;7.30;99.90;;;;;;5093595;28;20230;-58
2023/01/30 12:01:41;;;;;;;6.33;1.70;;;7.40;99.90;;;;;;5097199;28;20211;-58
2023/01/30 12:04:11;;;;;;;3.83;1.90;;;7.30;99.90;;;;;;5097394;28;20629;-58
2023/01/30 12:06:41;;;;;;;3.53;1.80;;;7.30;99.90;;;;;;5097841;28;20238;-58
2023/01/30 12:09:31;;;;;;;5.23;1.83;;;7.30;99.90;;;;;;5094191;28;20247;-58
2023/01/30 12:11:59;;;;;;;4.70;1.50;;;7.20;99.90;;;;;;5108133;28;20204;-66
2023/01/30 12:14:37;;;;;;;5.13;2.50;;;7.20;99.90;;;;;;5117022;28;20671;-62
2023/01/30 12:17:17;;;;;;;4.90;2.20;;;7.10;99.90;;;;;;5116200;28;20295;-61
2023/01/30 12:19:52;;;;;;;3.93;2.80;;;7.10;99.90;;;;;;5116451;28;20316;-62
2023/01/30 12:22:26;;;;;;;5.73;2.40;;;7.10;99.90;;;;;;5116057;28;20199;-60
2023/01/30 12:24:58;;;;;;;4.53;2.53;;;7.00;99.90;;;;;;5115653;28;20207;-60
2023/01/30 12:27:37;;;;;;;3.03;2.47;;;7.00;99.90;;;;;;5114826;28;20251;-60
2023/01/30 12:30:10;;;;;;;5.13;2.93;;;6.90;99.90;;;;;;5115027;28;20233;-60
2023/01/30 12:32:37;;;;;;;5.67;2.80;;;6.80;99.90;;;;;;5114770;28;20718;-59
2023/01/30 12:35:15;;;;;;;4.90;3.17;;;6.80;99.90;;;;;;5115224;28;20200;-59
2023/01/30 12:37:55;;;;;;;5.20;3.00;;;6.60;99.90;;;;;;5114774;28;20280;-59
2023/01/30 12:40:37;;;;;;;4.93;3.40;;;6.50;99.90;;;;;;5114380;28;20446;-60
2023/01/30 12:43:29;;;;;;;4.80;3.10;;;6.40;99.90;;;;;;5114588;28;20203;-59
2023/01/30 12:46:08;;;;;;;4.17;3.23;;;6.30;99.90;;;;;;5114376;28;20208;-59
2023/01/30 12:48:51;;;;;;;6.53;3.20;;;6.40;99.90;;;;;;5114799;28;20223;-59
2023/01/30 12:51:31;;;;;;;6.53;3.47;;;6.30;99.90;;;;;;5114345;28;20207;-59
2023/01/30 12:54:04;;;;;;;5.83;3.13;;;6.30;99.90;;;;;;5115406;28;20260;-62
2023/01/30 12:56:50;;;;;;;5.03;3.03;;;6.30;99.90;;;;;;5114541;28;20691;-60
2023/01/30 12:59:24;;;;;;;6.87;3.60;;;6.30;99.90;;;;;;5113952;28;20604;-58
2023/01/30 13:02:04;;;;;;;7.13;3.90;;;6.30;99.90;;;;;;5108613;28;20220;-58
2023/01/30 13:04:43;;;;;;;8.80;3.53;;;6.30;99.90;;;;;;5104756;28;20220;-60
2023/01/30 13:07:18;;;;;;;3.90;3.30;;;6.30;99.90;;;;;;5093603;28;20200;-56
2023/01/30 13:09:58;;;;;;;6.37;3.30;;;6.40;99.90;;;;;;5093456;28;20199;-56
2023/01/30 13:12:35;;;;;;;8.47;3.33;;;6.40;99.90;;;;;;5093916;28;20211;-57
2023/01/30 13:15:11;;;;;;;4.60;3.37;;;6.50;99.90;;;;;;5093121;28;20690;-56